createdAt,value
2022-08-26T00:01:42.248Z,100418.94
2022-08-26T00:04:12.555Z,100422.19
2022-08-26T00:06:42.337Z,100419.47
2022-08-26T00:09:16.812Z,100419.91
2022-08-26T00:11:45.359Z,100413.84
2022-08-26T00:14:13.877Z,100410.88
2022-08-26T00:16:48.082Z,100411.59
2022-08-26T00:19:16.647Z,100416.75
2022-08-26T00:21:44.072Z,100410.28
2022-08-26T00:24:11.297Z,100410.03
2022-08-26T00:26:39.294Z,100404.16
2022-08-26T00:29:08.783Z,100401.16
2022-08-26T00:31:36.736Z,100411.09
2022-08-26T00:34:04.467Z,100404.03
2022-08-26T00:36:32.540Z,100410.22
2022-08-26T00:38:59.718Z,100397.88
2022-08-26T00:41:29.019Z,100401.91
2022-08-26T00:43:56.405Z,100404.03
2022-08-26T00:46:33.627Z,100404.91
2022-08-26T00:49:20.423Z,100404.34
2022-08-26T00:51:50.933Z,100396.31
2022-08-26T00:54:19.341Z,100396.88
2022-08-26T00:56:50.824Z,100393.56
2022-08-26T00:59:18.568Z,100392.28
2022-08-26T01:01:47.122Z,100391.72
2022-08-26T01:04:17.442Z,100397.56
2022-08-26T01:06:45.954Z,100393.53
2022-08-26T01:09:14.422Z,100394.69
2022-08-26T01:11:42.828Z,100390.50
2022-08-26T01:14:12.401Z,100390.97
2022-08-26T01:16:39.812Z,100382.50
2022-08-26T01:19:36.211Z,100386.63
2022-08-26T01:22:10.080Z,100379.31
2022-08-26T01:24:38.156Z,100373.75
2022-08-26T01:27:09.025Z,100370.78
2022-08-26T01:29:38.088Z,100373.91
2022-08-26T01:32:07.825Z,100366.31
2022-08-26T01:34:36.605Z,100359.41
2022-08-26T01:37:07.639Z,100363.00
2022-08-26T01:39:35.534Z,100363.44
2022-08-26T01:42:03.525Z,100358.56
2022-08-26T01:44:32.999Z,100362.13
2022-08-26T01:47:02.093Z,100363.00
2022-08-26T01:49:34.469Z,100357.13
2022-08-26T01:52:02.799Z,100355.13
2022-08-26T01:54:30.389Z,100360.00
2022-08-26T01:56:58.961Z,100363.88
2022-08-26T01:59:26.397Z,100357.44
2022-08-26T02:01:53.826Z,100360.41
2022-08-26T02:04:23.815Z,100349.50
2022-08-26T02:06:52.023Z,100355.66
2022-08-26T02:09:21.903Z,100357.53
2022-08-26T02:11:51.191Z,100360.41
2022-08-26T02:14:27.019Z,100367.88
2022-08-26T02:16:55.242Z,100368.44
2022-08-26T02:19:24.699Z,100366.44
2022-08-26T02:21:52.710Z,100368.00
2022-08-26T02:24:22.006Z,100364.28
2022-08-26T02:26:51.124Z,100361.13
2022-08-26T02:29:23.608Z,100364.13
2022-08-26T02:31:51.894Z,100357.97
2022-08-26T02:34:21.344Z,100364.81
2022-08-26T02:36:49.429Z,100367.97
2022-08-26T02:39:22.300Z,100354.66
2022-08-26T02:41:50.014Z,100360.34
2022-08-26T02:44:17.515Z,100355.34
2022-08-26T02:46:47.254Z,100354.34
2022-08-26T02:49:17.316Z,100352.91
2022-08-26T02:51:44.692Z,100351.91
2022-08-26T02:54:12.648Z,100354.66
2022-08-26T02:56:40.004Z,100346.31
2022-08-26T02:59:07.347Z,100350.75
2022-08-26T03:01:35.731Z,100346.19
2022-08-26T03:04:04.766Z,100340.31
2022-08-26T03:06:32.894Z,100333.88
2022-08-26T03:09:00.116Z,100340.88
2022-08-26T03:11:32.251Z,100332.19
2022-08-26T03:14:00.694Z,100333.94
2022-08-26T03:16:32.297Z,100333.97
2022-08-26T03:19:00.308Z,100337.31
2022-08-26T03:21:27.572Z,100337.16
2022-08-26T03:23:54.922Z,100328.00
2022-08-26T03:26:27.029Z,100329.72
2022-08-26T03:29:13.719Z,100327.56
2022-08-26T03:31:41.411Z,100330.91
2022-08-26T03:34:09.701Z,100329.47
2022-08-26T03:36:38.836Z,100328.44
2022-08-26T03:39:09.132Z,100326.63
2022-08-26T03:41:37.026Z,100320.16
2022-08-26T03:44:06.304Z,100322.41
2022-08-26T03:46:33.694Z,100328.16
2022-08-26T03:49:02.096Z,100324.97
2022-08-26T03:51:29.302Z,100325.53
2022-08-26T03:53:56.536Z,100333.81
2022-08-26T03:56:24.838Z,100327.31
2022-08-26T03:58:53.912Z,100321.88
2022-08-26T04:01:22.526Z,100323.88
2022-08-26T04:04:00.256Z,100316.28
2022-08-26T04:06:33.059Z,100320.03
2022-08-26T04:09:02.346Z,100322.41
2022-08-26T04:11:34.332Z,100332.81
2022-08-26T04:14:04.359Z,100329.84
2022-08-26T04:16:32.769Z,100325.53
2022-08-26T04:21:45.106Z,100327.25
2022-08-26T04:24:13.738Z,100325.28
2022-08-26T04:26:42.778Z,100321.28
2022-08-26T04:29:15.296Z,100321.41
2022-08-26T04:31:42.615Z,100324.50
2022-08-26T04:34:11.059Z,100326.41
2022-08-26T04:36:38.583Z,100326.97
2022-08-26T04:39:05.868Z,100328.09
2022-08-26T04:41:33.475Z,100323.34
2022-08-26T04:44:02.396Z,100326.59
2022-08-26T04:46:30.227Z,100327.34
2022-08-26T04:48:57.798Z,100330.94
2022-08-26T04:51:28.065Z,100334.22
2022-08-26T04:53:58.674Z,100328.47
2022-08-26T04:56:27.225Z,100321.84
2022-08-26T04:58:56.547Z,100328.28
2022-08-26T05:01:24.157Z,100332.00
2022-08-26T05:03:52.679Z,100323.72
2022-08-26T05:06:20.681Z,100320.75
2022-08-26T05:08:49.271Z,100331.63
2022-08-26T05:11:16.567Z,100324.16
2022-08-26T05:13:43.880Z,100321.78
2022-08-26T05:16:12.996Z,100327.50
2022-08-26T05:18:41.220Z,100329.53
2022-08-26T05:21:21.956Z,100326.25
2022-08-26T05:23:51.343Z,100329.78
2022-08-26T05:26:23.062Z,100334.78
2022-08-26T05:28:54.746Z,100346.66
2022-08-26T05:31:27.287Z,100343.94
2022-08-26T05:33:56.835Z,100343.22
2022-08-26T05:36:26.953Z,100342.50
2022-08-26T05:38:55.270Z,100343.50
2022-08-26T05:41:24.971Z,100340.03
2022-08-26T05:43:52.777Z,100348.06
2022-08-26T05:46:20.187Z,100343.50
2022-08-26T05:48:47.585Z,100346.63
2022-08-26T05:51:15.128Z,100355.91
2022-08-26T05:53:54.790Z,100347.03
2022-08-26T05:56:27.843Z,100346.91
2022-08-26T05:58:55.961Z,100349.94
2022-08-26T06:01:26.031Z,100350.69
2022-08-26T06:03:55.254Z,100350.44
2022-08-26T06:06:28.267Z,100357.47
2022-08-26T06:08:59.143Z,100365.34
2022-08-26T06:11:27.906Z,100363.53
2022-08-26T06:14:00.032Z,100368.72
2022-08-26T06:16:30.276Z,100374.97
2022-08-26T06:18:57.718Z,100367.50
2022-08-26T06:21:29.078Z,100373.25
2022-08-26T06:24:16.437Z,100374.97
2022-08-26T06:26:50.671Z,100374.59
2022-08-26T06:29:23.639Z,100376.31
2022-08-26T06:31:52.920Z,100375.31
2022-08-26T06:34:20.521Z,100376.34
2022-08-26T06:36:49.329Z,100375.63
2022-08-26T06:39:20.440Z,100377.94
2022-08-26T06:41:47.798Z,100375.06
2022-08-26T06:44:18.578Z,100377.63
2022-08-26T06:46:46.159Z,100378.75
2022-08-26T06:49:17.744Z,100373.78
2022-08-26T06:51:44.973Z,100375.47
2022-08-26T06:54:12.290Z,100373.44
2022-08-26T06:56:41.165Z,100372.69
2022-08-26T06:59:09.101Z,100368.50
2022-08-26T07:01:47.143Z,100362.03
2022-08-26T07:04:22.169Z,100373.50
2022-08-26T07:06:52.959Z,100370.72
2022-08-26T07:09:24.634Z,100370.31
2022-08-26T07:11:52.668Z,100366.03
2022-08-26T07:14:21.472Z,100373.19
2022-08-26T07:16:49.914Z,100368.53
2022-08-26T07:19:29.083Z,100372.13
2022-08-26T07:21:58.830Z,100373.22
2022-08-26T07:24:28.554Z,100372.22
2022-08-26T07:27:00.794Z,100373.22
2022-08-26T07:29:29.282Z,100371.91
2022-08-26T07:31:56.633Z,100379.66
2022-08-26T07:34:24.752Z,100373.00
2022-08-26T07:36:53.542Z,100375.50
2022-08-26T07:39:22.611Z,100378.88
2022-08-26T07:41:50.219Z,100381.47
2022-08-26T07:44:17.711Z,100381.22
2022-08-26T07:46:52.069Z,100378.09
2022-08-26T07:49:22.050Z,100378.41
2022-08-26T07:51:50.324Z,100380.84
2022-08-26T07:54:17.864Z,100379.75
2022-08-26T07:56:46.387Z,100380.47
2022-08-26T07:59:15.109Z,100380.00
2022-08-26T08:01:44.997Z,100384.69
2022-08-26T08:04:13.406Z,100377.66
2022-08-26T08:06:41.774Z,100374.78
2022-08-26T08:09:12.363Z,100374.53
2022-08-26T08:11:39.605Z,100373.88
2022-08-26T08:14:08.442Z,100371.19
2022-08-26T08:16:41.893Z,100366.97
2022-08-26T08:19:13.732Z,100373.53
2022-08-26T08:21:42.386Z,100370.19
2022-08-26T08:24:11.250Z,100374.34
2022-08-26T08:26:38.979Z,100373.53
2022-08-26T08:29:08.378Z,100368.34
2022-08-26T08:31:56.280Z,100372.66
2022-08-26T08:34:24.483Z,100361.94
2022-08-26T08:36:54.187Z,100364.91
2022-08-26T08:39:22.352Z,100358.50
2022-08-26T08:42:16.125Z,100360.47
2022-08-26T08:44:52.196Z,100363.91
2022-08-26T08:47:25.779Z,100370.72
2022-08-26T08:49:54.560Z,100359.47
2022-08-26T08:52:32.312Z,100360.50
2022-08-26T08:54:59.607Z,100350.38
2022-08-26T08:57:45.469Z,100359.28
2022-08-26T09:00:18.680Z,100355.88
2022-08-26T09:03:03.885Z,100350.03
2022-08-26T09:05:40.140Z,100343.91
2022-08-26T09:08:11.620Z,100335.69
2022-08-26T09:10:44.435Z,100334.59
2022-08-26T09:13:13.813Z,100335.88
2022-08-26T09:16:03.536Z,100339.56
2022-08-26T09:18:33.633Z,100343.66
2022-08-26T09:21:14.068Z,100342.09
2022-08-26T09:23:42.862Z,100344.63
2022-08-26T09:26:13.423Z,100340.63
2022-08-26T09:28:41.536Z,100329.66
2022-08-26T09:31:12.183Z,100337.28
2022-08-26T09:33:40.275Z,100340.84
2022-08-26T09:36:16.483Z,100330.91
2022-08-26T09:38:44.928Z,100324.56
2022-08-26T09:41:21.171Z,100319.50
2022-08-26T09:44:07.924Z,100321.81
2022-08-26T09:46:47.333Z,100327.53
2022-08-26T09:49:21.124Z,100322.41
2022-08-26T09:51:50.187Z,100322.47
2022-08-26T09:54:30.463Z,100326.78
2022-08-26T09:57:17.476Z,100319.31
2022-08-26T09:59:44.995Z,100321.09
2022-08-26T10:02:17.458Z,100321.09
2022-08-26T10:04:52.312Z,100314.88
2022-08-26T10:07:39.316Z,100317.66
2022-08-26T10:10:09.651Z,100309.47
2022-08-26T10:12:41.752Z,100308.09
2022-08-26T10:15:09.971Z,100304.16
2022-08-26T10:17:48.140Z,100306.56
2022-08-26T10:20:23.443Z,100291.53
2022-08-26T10:23:03.990Z,100306.28
2022-08-26T10:25:39.213Z,100292.16
2022-08-26T10:28:12.746Z,100297.31
2022-08-26T10:30:46.960Z,100291.47
2022-08-26T10:33:18.482Z,100291.94
2022-08-26T10:35:51.453Z,100290.41
2022-08-26T10:38:22.122Z,100285.84
2022-08-26T10:41:18.857Z,100285.44
2022-08-26T10:43:48.932Z,100290.34
2022-08-26T10:46:20.728Z,100275.63
2022-08-26T10:48:52.997Z,100271.31
2022-08-26T10:51:23.777Z,100275.94
2022-08-26T10:53:58.743Z,100269.19
2022-08-26T10:56:38.363Z,100272.63
2022-08-26T10:59:05.526Z,100269.94
2022-08-26T11:01:43.828Z,100266.66
2022-08-26T11:04:29.796Z,100254.16
2022-08-26T11:07:21.073Z,100257.91
2022-08-26T11:09:52.365Z,100251.94
2022-08-26T11:12:39.846Z,100254.69
2022-08-26T11:15:10.680Z,100255.13
2022-08-26T11:17:46.334Z,100260.72
2022-08-26T11:20:42.087Z,100258.81
2022-08-26T11:23:29.464Z,100256.28
2022-08-26T11:25:57.203Z,100250.53
2022-08-26T11:28:44.997Z,100248.28
2022-08-26T11:31:32.688Z,100250.53
2022-08-26T11:34:10.809Z,100241.56
2022-08-26T11:36:41.038Z,100245.00
2022-08-26T11:39:17.777Z,100240.88
2022-08-26T11:41:46.180Z,100242.06
2022-08-26T11:44:17.780Z,100233.28
2022-08-26T11:46:52.312Z,100240.13
2022-08-26T11:49:19.657Z,100239.09
2022-08-26T11:51:48.338Z,100229.78
2022-08-26T11:54:32.913Z,100229.75
2022-08-26T11:57:09.413Z,100231.09
2022-08-26T11:59:40.430Z,100224.66
2022-08-26T12:02:15.284Z,100223.97
2022-08-26T12:04:46.407Z,100213.63
2022-08-26T12:07:14.582Z,100217.44
2022-08-26T12:09:54.900Z,100206.44
2022-08-26T12:12:40.398Z,100207.97
2022-08-26T12:15:16.161Z,100198.88
2022-08-26T12:17:44.292Z,100193.88
2022-08-26T12:20:30.786Z,100199.28
2022-08-26T12:22:58.982Z,100200.84
2022-08-26T12:25:28.042Z,100192.09
2022-08-26T12:28:04.116Z,100188.88
2022-08-26T12:30:31.350Z,100181.47
2022-08-26T12:33:22.124Z,100185.22
2022-08-26T12:35:54.360Z,100179.81
2022-08-26T12:38:25.471Z,100176.13
2022-08-26T12:40:53.120Z,100173.38
2022-08-26T12:43:37.401Z,100173.03
2022-08-26T12:46:06.783Z,100169.28
2022-08-26T12:48:36.213Z,100168.25
2022-08-26T12:51:03.889Z,100162.38
2022-08-26T12:53:33.503Z,100156.47
2022-08-26T12:56:05.254Z,100149.44
2022-08-26T12:58:33.988Z,100140.00
2022-08-26T13:01:04.249Z,100140.13
2022-08-26T13:03:34.717Z,100139.22
2022-08-26T13:06:16.012Z,100137.47
2022-08-26T13:08:48.109Z,100136.03
2022-08-26T13:11:29.379Z,100132.41
2022-08-26T13:14:07.240Z,100131.56
2022-08-26T13:16:35.610Z,100122.06
2022-08-26T13:19:05.315Z,100116.19
2022-08-26T13:21:37.656Z,100111.94
2022-08-26T13:24:07.582Z,100105.78
2022-08-26T13:26:35.717Z,100107.88
2022-08-26T13:29:05.367Z,100104.28
2022-08-26T13:31:36.026Z,100100.81
2022-08-26T13:34:14.944Z,100108.88
2022-08-26T13:36:45.590Z,100101.81
2022-08-26T13:39:13.315Z,100104.88
2022-08-26T13:41:40.792Z,100105.41
2022-08-26T13:44:08.173Z,100095.34
2022-08-26T13:46:35.712Z,100100.00
2022-08-26T13:49:03.488Z,100094.59
2022-08-26T13:51:30.852Z,100092.78
2022-08-26T13:53:58.200Z,100098.78
2022-08-26T13:56:27.532Z,100087.28
2022-08-26T13:58:55.252Z,100089.13
2022-08-26T14:01:23.285Z,100082.56
2022-08-26T14:03:51.224Z,100087.69
2022-08-26T14:06:21.624Z,100076.22
2022-08-26T14:08:49.798Z,100084.94
2022-08-26T14:11:37.280Z,100086.50
2022-08-26T14:14:17.834Z,100079.81
2022-08-26T14:16:59.651Z,100073.38
2022-08-26T14:19:29.184Z,100075.34
2022-08-26T14:21:56.872Z,100078.59
2022-08-26T14:24:24.136Z,100071.00
2022-08-26T14:26:51.388Z,100071.53
2022-08-26T14:29:18.696Z,100073.34
2022-08-26T14:31:45.990Z,100069.41
2022-08-26T14:34:13.878Z,100070.91
2022-08-26T14:36:41.268Z,100071.59
2022-08-26T14:39:10.002Z,100064.00
2022-08-26T14:41:45.689Z,100067.25
2022-08-26T14:44:22.238Z,100063.81
2022-08-26T14:46:50.833Z,100062.69
2022-08-26T14:49:18.863Z,100062.25
2022-08-26T14:51:46.285Z,100058.44
2022-08-26T14:54:14.739Z,100054.63
2022-08-26T14:56:44.842Z,100048.88
2022-08-26T14:59:13.674Z,100040.44
2022-08-26T15:01:41.108Z,100044.53
2022-08-26T15:04:08.410Z,100048.50
2022-08-26T15:06:36.079Z,100034.94
2022-08-26T15:09:04.007Z,100044.44
2022-08-26T15:11:31.353Z,100044.00
2022-08-26T15:14:19.123Z,100040.38
2022-08-26T15:16:51.248Z,100039.19
2022-08-26T15:19:19.218Z,100041.75
2022-08-26T15:21:47.420Z,100034.91
2022-08-26T15:24:16.118Z,100047.13
2022-08-26T15:26:44.033Z,100046.59
2022-08-26T15:29:11.518Z,100047.81
2022-08-26T15:31:38.799Z,100046.47
2022-08-26T15:34:13.280Z,100050.66
2022-08-26T15:36:44.963Z,100048.44
2022-08-26T15:39:13.067Z,100048.81
2022-08-26T15:41:41.163Z,100050.88
2022-08-26T15:44:11.200Z,100051.03
2022-08-26T15:46:38.726Z,100050.56
2022-08-26T15:49:06.451Z,100053.69
2022-08-26T15:51:35.911Z,100049.56
2022-08-26T15:54:13.788Z,100054.59
2022-08-26T15:56:41.034Z,100053.25
2022-08-26T15:59:11.617Z,100052.56
2022-08-26T16:01:39.672Z,100046.59
2022-08-26T16:04:07.517Z,100046.97
2022-08-26T16:06:36.159Z,100057.59
2022-08-26T16:09:04.073Z,100059.66
2022-08-26T16:11:31.558Z,100058.66
2022-08-26T16:13:58.795Z,100059.88
2022-08-26T16:16:27.027Z,100054.75
2022-08-26T16:18:55.174Z,100056.81
2022-08-26T16:21:24.698Z,100054.97
2022-08-26T16:23:52.182Z,100053.25
2022-08-26T16:26:21.580Z,100058.06
2022-08-26T16:28:48.998Z,100060.13
2022-08-26T16:31:16.776Z,100045.94
2022-08-26T16:33:44.316Z,100052.75
2022-08-26T16:36:11.885Z,100053.59
2022-08-26T16:38:39.282Z,100049.34
2022-08-26T16:41:07.385Z,100054.16
2022-08-26T16:43:35.508Z,100053.31
2022-08-26T16:46:05.533Z,100047.13
2022-08-26T16:48:32.991Z,100046.13
2022-08-26T16:51:00.226Z,100050.22
2022-08-26T16:53:27.527Z,100052.31
2022-08-26T16:55:55.185Z,100057.97
2022-08-26T16:58:22.659Z,100054.38
2022-08-26T17:00:50.135Z,100051.44
2022-08-26T17:03:17.697Z,100056.06
2022-08-26T17:05:44.979Z,100050.59
2022-08-26T17:08:14.514Z,100051.63
2022-08-26T17:10:51.806Z,100048.38
2022-08-26T17:13:35.175Z,100046.66
2022-08-26T17:16:04.952Z,100047.31
2022-08-26T17:18:33.497Z,100049.91
2022-08-26T17:21:02.355Z,100050.78
2022-08-26T17:23:29.700Z,100051.63
2022-08-26T17:25:57.033Z,100053.53
2022-08-26T17:28:24.256Z,100055.75
2022-08-26T17:30:51.641Z,100061.22
2022-08-26T17:33:22.032Z,100054.41
2022-08-26T17:35:53.090Z,100054.56
2022-08-26T17:38:21.248Z,100057.50
2022-08-26T17:40:50.262Z,100052.34
2022-08-26T17:43:17.920Z,100051.88
2022-08-26T17:45:45.565Z,100052.00
2022-08-26T17:48:12.995Z,100046.00
2022-08-26T17:50:41.303Z,100042.94
2022-08-26T17:53:12.578Z,100049.47
2022-08-26T17:55:47.067Z,100045.34
2022-08-26T17:58:14.988Z,100044.69
2022-08-26T18:00:47.227Z,100044.00
2022-08-26T18:03:14.507Z,100052.72
2022-08-26T18:05:42.605Z,100048.44
2022-08-26T18:08:09.906Z,100048.28
2022-08-26T18:10:37.369Z,100054.13
2022-08-26T18:13:04.787Z,100048.16
2022-08-26T18:15:32.035Z,100049.69
2022-08-26T18:17:59.325Z,100051.75
2022-08-26T18:20:26.776Z,100042.50
2022-08-26T18:22:54.109Z,100052.94
2022-08-26T18:25:21.395Z,100058.44
2022-08-26T18:27:48.862Z,100048.84
2022-08-26T18:30:20.728Z,100054.50
2022-08-26T18:32:48.561Z,100056.94
2022-08-26T18:35:15.862Z,100050.88
2022-08-26T18:37:44.406Z,100055.50
2022-08-26T18:40:12.842Z,100057.56
2022-08-26T18:42:41.371Z,100053.13
2022-08-26T18:45:09.397Z,100053.97
2022-08-26T18:47:36.615Z,100062.00
2022-08-26T18:50:04.610Z,100058.75
2022-08-26T18:52:32.221Z,100063.56
2022-08-26T18:54:59.528Z,100056.72
2022-08-26T18:57:26.724Z,100061.69
2022-08-26T18:59:53.957Z,100059.44
2022-08-26T19:02:21.442Z,100061.69
2022-08-26T19:04:49.158Z,100059.81
2022-08-26T19:07:16.377Z,100061.50
2022-08-26T19:09:43.708Z,100061.00
2022-08-26T19:12:11.725Z,100060.31
2022-08-26T19:14:39.055Z,100053.81
2022-08-26T19:17:06.424Z,100059.31
2022-08-26T19:19:33.773Z,100058.28
2022-08-26T19:22:02.141Z,100061.38
2022-08-26T19:24:29.393Z,100066.47
2022-08-26T19:26:58.378Z,100066.47
2022-08-26T19:29:27.099Z,100072.97
2022-08-26T19:31:54.459Z,100070.56
2022-08-26T19:34:21.674Z,100077.25
2022-08-26T19:36:49.423Z,100080.47
2022-08-26T19:39:16.715Z,100072.13
2022-08-26T19:41:44.453Z,100071.94
2022-08-26T19:44:33.999Z,100080.13
2022-08-26T19:47:01.501Z,100068.31
2022-08-26T19:49:28.705Z,100069.84
2022-08-26T19:51:55.932Z,100081.81
2022-08-26T19:54:23.177Z,100077.66
2022-08-26T19:56:50.397Z,100077.53
2022-08-26T19:59:18.080Z,100072.91
2022-08-26T20:01:45.338Z,100068.84
2022-08-26T20:04:12.649Z,100070.19
2022-08-26T20:06:40.059Z,100074.44
2022-08-26T20:09:07.281Z,100068.50
2022-08-26T20:11:34.498Z,100068.78
2022-08-26T20:14:01.896Z,100066.03
2022-08-26T20:16:29.132Z,100066.69
2022-08-26T20:19:15.121Z,100076.97
2022-08-26T20:21:43.033Z,100082.22
2022-08-26T20:24:12.688Z,100076.06
2022-08-26T20:26:41.099Z,100077.25
2022-08-26T20:29:09.414Z,100082.16
2022-08-26T20:31:37.180Z,100086.22
2022-08-26T20:34:05.281Z,100081.56
2022-08-26T20:36:33.506Z,100085.84
2022-08-26T20:39:00.898Z,100088.31
2022-08-26T20:41:28.617Z,100096.66
2022-08-26T20:43:56.362Z,100083.94
2022-08-26T20:46:25.241Z,100082.03
2022-08-26T20:48:53.160Z,100085.94
2022-08-26T20:51:20.982Z,100078.25
2022-08-26T20:53:48.371Z,100089.47
2022-08-26T20:56:16.748Z,100088.41
2022-08-26T20:58:43.972Z,100092.00
2022-08-26T21:01:18.046Z,100090.59
2022-08-26T21:03:45.716Z,100097.63
2022-08-26T21:06:13.006Z,100104.25
2022-08-26T21:08:42.606Z,100106.53
2022-08-26T21:11:11.048Z,100106.69
2022-08-26T21:14:01.222Z,100101.53
2022-08-26T21:16:26.418Z,100107.16
2022-08-26T21:18:53.701Z,100104.59
2022-08-26T21:21:25.331Z,100106.78
2022-08-26T21:23:52.594Z,100103.94
2022-08-26T21:26:20.358Z,100104.97
2022-08-26T21:28:47.639Z,100111.75
2022-08-26T21:31:16.194Z,100107.63
2022-08-26T21:33:43.887Z,100100.63
2022-08-26T21:36:12.044Z,100102.16
2022-08-26T21:38:39.859Z,100108.66
2022-08-26T21:41:12.924Z,100105.19
2022-08-26T21:43:42.285Z,100104.34
2022-08-26T21:46:16.958Z,100104.66
2022-08-26T21:48:50.738Z,100095.63
2022-08-26T21:51:19.902Z,100094.22
2022-08-26T21:53:47.293Z,100094.69
2022-08-26T21:56:16.519Z,100093.13
2022-08-26T21:58:43.893Z,100092.28
2022-08-26T22:01:12.509Z,100085.56
2022-08-26T22:03:47.230Z,100091.19
2022-08-26T22:06:19.336Z,100089.88
2022-08-26T22:08:46.635Z,100083.75
2022-08-26T22:11:14.257Z,100075.97
2022-08-26T22:13:42.109Z,100084.41
2022-08-26T22:16:10.004Z,100092.44
2022-08-26T22:18:37.762Z,100079.81
2022-08-26T22:21:09.262Z,100084.78
2022-08-26T22:23:37.094Z,100081.19
2022-08-26T22:26:05.523Z,100076.59
2022-08-26T22:28:33.157Z,100083.94
2022-08-26T22:31:01.465Z,100088.00
2022-08-26T22:33:29.280Z,100080.66
2022-08-26T22:35:56.572Z,100080.84
2022-08-26T22:38:24.046Z,100084.94
2022-08-26T22:40:55.221Z,100073.72
2022-08-26T22:43:26.338Z,100080.19
2022-08-26T22:45:54.412Z,100082.38
2022-08-26T22:48:23.716Z,100079.97
2022-08-26T22:50:51.395Z,100094.50
2022-08-26T22:53:18.662Z,100090.88
2022-08-26T22:55:46.531Z,100091.88
2022-08-26T22:58:15.388Z,100093.81
2022-08-26T23:00:43.646Z,100097.78
2022-08-26T23:03:11.696Z,100097.78
2022-08-26T23:05:39.667Z,100097.03
2022-08-26T23:08:07.600Z,100095.41
2022-08-26T23:10:36.802Z,100088.25
2022-08-26T23:13:05.082Z,100092.69
2022-08-26T23:15:32.680Z,100092.09
2022-08-26T23:18:00.471Z,100087.50
2022-08-26T23:20:28.483Z,100087.78
2022-08-26T23:22:56.202Z,100089.06
2022-08-26T23:25:24.460Z,100088.03
2022-08-26T23:27:52.420Z,100082.09
2022-08-26T23:30:21.777Z,100085.84
2022-08-26T23:32:49.634Z,100078.91
2022-08-26T23:35:17.091Z,100089.31
2022-08-26T23:37:45.078Z,100080.81
2022-08-26T23:40:25.299Z,100084.56
2022-08-26T23:42:53.539Z,100080.06
2022-08-26T23:45:21.124Z,100085.91
2022-08-26T23:47:50.614Z,100089.66
2022-08-26T23:50:19.047Z,100087.94
2022-08-26T23:53:05.391Z,100083.19
2022-08-26T23:55:36.440Z,100088.03
2022-08-26T23:58:04.456Z,100093.34
